sensor_id;sensor_type;location;lat;lon;timestamp;P1;durP1;ratioP1;P2;durP2;ratioP2
12480;SDS011;6305;48.398;11.762;2022-10-04T00:02:01;24.07;;;12.33;;
12480;SDS011;6305;48.398;11.762;2022-10-04T00:04:32;21.90;;;12.53;;
12480;SDS011;6305;48.398;11.762;2022-10-04T00:07:13;21.87;;;12.00;;
12480;SDS011;6305;48.398;11.762;2022-10-04T00:09:44;22.87;;;11.80;;
12480;SDS011;6305;48.398;11.762;2022-10-04T00:12:17;22.90;;;12.40;;
12480;SDS011;6305;48.398;11.762;2022-10-04T00:14:46;25.07;;;12.73;;
12480;SDS011;6305;48.398;11.762;2022-10-04T00:17:19;25.43;;;12.27;;
12480;SDS011;6305;48.398;11.762;2022-10-04T00:19:51;21.30;;;11.57;;
12480;SDS011;6305;48.398;11.762;2022-10-04T00:22:19;19.50;;;10.93;;
12480;SDS011;6305;48.398;11.762;2022-10-04T00:25:00;22.77;;;11.73;;
12480;SDS011;6305;48.398;11.762;2022-10-04T00:33:45;18.70;;;10.30;;
12480;SDS011;6305;48.398;11.762;2022-10-04T00:39:36;21.20;;;11.07;;
12480;SDS011;6305;48.398;11.762;2022-10-04T00:42:10;20.07;;;10.67;;
12480;SDS011;6305;48.398;11.762;2022-10-04T00:44:48;20.27;;;10.67;;
12480;SDS011;6305;48.398;11.762;2022-10-04T00:47:23;17.70;;;9.90;;
12480;SDS011;6305;48.398;11.762;2022-10-04T00:49:56;17.03;;;10.27;;
12480;SDS011;6305;48.398;11.762;2022-10-04T00:52:29;19.60;;;9.73;;
12480;SDS011;6305;48.398;11.762;2022-10-04T00:55:01;17.83;;;9.63;;
12480;SDS011;6305;48.398;11.762;2022-10-04T00:57:33;16.50;;;9.03;;
12480;SDS011;6305;48.398;11.762;2022-10-04T01:00:06;18.13;;;9.77;;
12480;SDS011;6305;48.398;11.762;2022-10-04T01:02:44;20.20;;;9.50;;
12480;SDS011;6305;48.398;11.762;2022-10-04T01:05:16;18.20;;;10.10;;
12480;SDS011;6305;48.398;11.762;2022-10-04T01:07:49;18.40;;;9.70;;
12480;SDS011;6305;48.398;11.762;2022-10-04T01:10:20;16.43;;;9.37;;
12480;SDS011;6305;48.398;11.762;2022-10-04T01:12:51;19.50;;;9.33;;
12480;SDS011;6305;48.398;11.762;2022-10-04T01:15:22;17.00;;;8.90;;
12480;SDS011;6305;48.398;11.762;2022-10-04T01:18:08;17.37;;;9.13;;
12480;SDS011;6305;48.398;11.762;2022-10-04T01:20:48;17.77;;;9.70;;
12480;SDS011;6305;48.398;11.762;2022-10-04T01:23:31;20.13;;;9.50;;
12480;SDS011;6305;48.398;11.762;2022-10-04T01:29:04;19.30;;;10.33;;
12480;SDS011;6305;48.398;11.762;2022-10-04T01:31:35;21.30;;;9.67;;
12480;SDS011;6305;48.398;11.762;2022-10-04T01:34:03;19.60;;;9.37;;
12480;SDS011;6305;48.398;11.762;2022-10-04T01:36:31;19.70;;;9.50;;
12480;SDS011;6305;48.398;11.762;2022-10-04T01:39:00;17.23;;;9.47;;
12480;SDS011;6305;48.398;11.762;2022-10-04T01:41:29;18.33;;;9.57;;
12480;SDS011;6305;48.398;11.762;2022-10-04T01:44:03;18.33;;;8.80;;
12480;SDS011;6305;48.398;11.762;2022-10-04T01:46:33;17.73;;;8.77;;
12480;SDS011;6305;48.398;11.762;2022-10-04T01:49:03;16.67;;;8.07;;
12480;SDS011;6305;48.398;11.762;2022-10-04T01:51:34;18.73;;;8.80;;
12480;SDS011;6305;48.398;11.762;2022-10-04T01:54:08;17.60;;;8.43;;
12480;SDS011;6305;48.398;11.762;2022-10-04T01:56:39;15.93;;;8.60;;
12480;SDS011;6305;48.398;11.762;2022-10-04T01:59:12;18.23;;;8.73;;
12480;SDS011;6305;48.398;11.762;2022-10-04T02:01:42;16.17;;;8.93;;
12480;SDS011;6305;48.398;11.762;2022-10-04T02:04:15;16.30;;;8.57;;
12480;SDS011;6305;48.398;11.762;2022-10-04T02:06:44;15.53;;;8.73;;
12480;SDS011;6305;48.398;11.762;2022-10-04T02:09:16;13.20;;;8.30;;
12480;SDS011;6305;48.398;11.762;2022-10-04T02:11:46;16.63;;;9.23;;
12480;SDS011;6305;48.398;11.762;2022-10-04T02:14:18;19.73;;;9.63;;
12480;SDS011;6305;48.398;11.762;2022-10-04T02:16:47;21.10;;;9.90;;
12480;SDS011;6305;48.398;11.762;2022-10-04T02:19:18;21.10;;;11.07;;
12480;SDS011;6305;48.398;11.762;2022-10-04T02:21:45;23.37;;;11.90;;
12480;SDS011;6305;48.398;11.762;2022-10-04T02:24:15;19.73;;;12.07;;
12480;SDS011;6305;48.398;11.762;2022-10-04T02:26:47;22.43;;;12.90;;
12480;SDS011;6305;48.398;11.762;2022-10-04T02:29:15;26.50;;;13.63;;
12480;SDS011;6305;48.398;11.762;2022-10-04T02:31:42;29.93;;;14.93;;
12480;SDS011;6305;48.398;11.762;2022-10-04T02:34:27;26.67;;;13.50;;
12480;SDS011;6305;48.398;11.762;2022-10-04T02:36:54;27.17;;;15.47;;
12480;SDS011;6305;48.398;11.762;2022-10-04T02:39:23;26.30;;;15.30;;
12480;SDS011;6305;48.398;11.762;2022-10-04T02:41:55;29.73;;;15.07;;
12480;SDS011;6305;48.398;11.762;2022-10-04T02:44:24;26.47;;;14.67;;
12480;SDS011;6305;48.398;11.762;2022-10-04T02:46:54;30.17;;;14.07;;
12480;SDS011;6305;48.398;11.762;2022-10-04T02:49:31;26.07;;;14.20;;
12480;SDS011;6305;48.398;11.762;2022-10-04T02:52:02;30.33;;;14.10;;
12480;SDS011;6305;48.398;11.762;2022-10-04T02:54:34;31.77;;;14.47;;
12480;SDS011;6305;48.398;11.762;2022-10-04T02:57:10;30.50;;;14.27;;
12480;SDS011;6305;48.398;11.762;2022-10-04T02:59:41;31.27;;;14.97;;
12480;SDS011;6305;48.398;11.762;2022-10-04T03:02:18;34.10;;;15.80;;
12480;SDS011;6305;48.398;11.762;2022-10-04T03:04:47;31.23;;;14.97;;
12480;SDS011;6305;48.398;11.762;2022-10-04T03:07:16;32.13;;;15.93;;
12480;SDS011;6305;48.398;11.762;2022-10-04T03:09:46;32.77;;;14.97;;
12480;SDS011;6305;48.398;11.762;2022-10-04T03:12:13;31.93;;;15.67;;
12480;SDS011;6305;48.398;11.762;2022-10-04T03:14:41;34.23;;;15.83;;
12480;SDS011;6305;48.398;11.762;2022-10-04T03:17:09;31.30;;;14.93;;
12480;SDS011;6305;48.398;11.762;2022-10-04T03:19:36;33.87;;;14.30;;
12480;SDS011;6305;48.398;11.762;2022-10-04T03:22:05;27.27;;;14.13;;
12480;SDS011;6305;48.398;11.762;2022-10-04T03:24:35;31.43;;;15.47;;
12480;SDS011;6305;48.398;11.762;2022-10-04T03:27:06;34.63;;;15.57;;
12480;SDS011;6305;48.398;11.762;2022-10-04T03:29:35;36.07;;;15.53;;
12480;SDS011;6305;48.398;11.762;2022-10-04T03:32:08;30.50;;;14.27;;
12480;SDS011;6305;48.398;11.762;2022-10-04T03:34:39;31.47;;;14.80;;
12480;SDS011;6305;48.398;11.762;2022-10-04T03:37:12;33.10;;;14.03;;
12480;SDS011;6305;48.398;11.762;2022-10-04T03:39:43;28.40;;;14.37;;
12480;SDS011;6305;48.398;11.762;2022-10-04T03:42:14;33.73;;;14.90;;
12480;SDS011;6305;48.398;11.762;2022-10-04T03:44:43;29.03;;;15.00;;
12480;SDS011;6305;48.398;11.762;2022-10-04T03:47:12;29.93;;;15.13;;
12480;SDS011;6305;48.398;11.762;2022-10-04T03:49:44;30.37;;;15.43;;
12480;SDS011;6305;48.398;11.762;2022-10-04T03:52:14;26.50;;;14.80;;
12480;SDS011;6305;48.398;11.762;2022-10-04T03:54:46;26.53;;;14.13;;
12480;SDS011;6305;48.398;11.762;2022-10-04T03:57:18;28.57;;;14.20;;
12480;SDS011;6305;48.398;11.762;2022-10-04T03:59:44;24.67;;;13.03;;
12480;SDS011;6305;48.398;11.762;2022-10-04T04:02:14;26.57;;;13.80;;
12480;SDS011;6305;48.398;11.762;2022-10-04T04:04:47;23.10;;;13.93;;
12480;SDS011;6305;48.398;11.762;2022-10-04T04:07:19;22.43;;;13.50;;
12480;SDS011;6305;48.398;11.762;2022-10-04T04:09:50;27.50;;;13.70;;
12480;SDS011;6305;48.398;11.762;2022-10-04T04:12:23;28.37;;;13.87;;
12480;SDS011;6305;48.398;11.762;2022-10-04T04:14:58;26.47;;;14.10;;
12480;SDS011;6305;48.398;11.762;2022-10-04T04:17:31;25.93;;;14.10;;
12480;SDS011;6305;48.398;11.762;2022-10-04T04:20:02;29.53;;;14.77;;
12480;SDS011;6305;48.398;11.762;2022-10-04T04:22:32;31.23;;;15.30;;
12480;SDS011;6305;48.398;11.762;2022-10-04T04:25:03;34.23;;;16.40;;
12480;SDS011;6305;48.398;11.762;2022-10-04T04:27:35;29.93;;;16.37;;
12480;SDS011;6305;48.398;11.762;2022-10-04T04:30:05;32.23;;;16.73;;
12480;SDS011;6305;48.398;11.762;2022-10-04T04:32:34;32.27;;;15.50;;
12480;SDS011;6305;48.398;11.762;2022-10-04T04:35:05;28.13;;;15.40;;
12480;SDS011;6305;48.398;11.762;2022-10-04T04:37:54;31.10;;;14.97;;
12480;SDS011;6305;48.398;11.762;2022-10-04T04:40:28;31.87;;;14.60;;
12480;SDS011;6305;48.398;11.762;2022-10-04T04:42:57;28.40;;;14.33;;
12480;SDS011;6305;48.398;11.762;2022-10-04T04:45:25;27.97;;;14.70;;
12480;SDS011;6305;48.398;11.762;2022-10-04T04:47:54;27.20;;;14.20;;
12480;SDS011;6305;48.398;11.762;2022-10-04T04:50:23;26.90;;;14.30;;
12480;SDS011;6305;48.398;11.762;2022-10-04T04:52:57;27.23;;;14.07;;
12480;SDS011;6305;48.398;11.762;2022-10-04T04:55:29;26.50;;;14.00;;
12480;SDS011;6305;48.398;11.762;2022-10-04T04:58:02;24.60;;;13.27;;
12480;SDS011;6305;48.398;11.762;2022-10-04T05:00:31;21.97;;;13.73;;
12480;SDS011;6305;48.398;11.762;2022-10-04T05:03:03;25.70;;;13.93;;
12480;SDS011;6305;48.398;11.762;2022-10-04T05:05:32;25.03;;;14.57;;
12480;SDS011;6305;48.398;11.762;2022-10-04T05:08:11;29.63;;;14.10;;
12480;SDS011;6305;48.398;11.762;2022-10-04T05:10:40;27.40;;;14.03;;
12480;SDS011;6305;48.398;11.762;2022-10-04T05:13:12;26.23;;;14.50;;
12480;SDS011;6305;48.398;11.762;2022-10-04T05:15:41;25.97;;;14.70;;
12480;SDS011;6305;48.398;11.762;2022-10-04T05:18:13;31.57;;;16.30;;
12480;SDS011;6305;48.398;11.762;2022-10-04T05:20:49;40.20;;;18.60;;
12480;SDS011;6305;48.398;11.762;2022-10-04T05:23:18;32.57;;;17.30;;
12480;SDS011;6305;48.398;11.762;2022-10-04T05:25:45;32.97;;;17.90;;
12480;SDS011;6305;48.398;11.762;2022-10-04T05:28:15;36.17;;;16.90;;
12480;SDS011;6305;48.398;11.762;2022-10-04T05:30:52;37.20;;;17.53;;
12480;SDS011;6305;48.398;11.762;2022-10-04T05:33:44;34.00;;;17.20;;
12480;SDS011;6305;48.398;11.762;2022-10-04T05:36:29;33.23;;;16.57;;
12480;SDS011;6305;48.398;11.762;2022-10-04T05:39:06;38.90;;;18.30;;
12480;SDS011;6305;48.398;11.762;2022-10-04T05:41:41;33.00;;;17.37;;
12480;SDS011;6305;48.398;11.762;2022-10-04T05:44:22;34.30;;;17.40;;
12480;SDS011;6305;48.398;11.762;2022-10-04T05:46:51;30.67;;;16.70;;
12480;SDS011;6305;48.398;11.762;2022-10-04T05:49:20;33.43;;;16.80;;
12480;SDS011;6305;48.398;11.762;2022-10-04T05:51:50;35.33;;;15.83;;
12480;SDS011;6305;48.398;11.762;2022-10-04T05:54:20;30.80;;;15.87;;
12480;SDS011;6305;48.398;11.762;2022-10-04T05:56:55;33.33;;;17.13;;
12480;SDS011;6305;48.398;11.762;2022-10-04T05:59:43;34.03;;;16.90;;
12480;SDS011;6305;48.398;11.762;2022-10-04T06:02:22;33.23;;;16.00;;
12480;SDS011;6305;48.398;11.762;2022-10-04T06:05:04;32.30;;;16.40;;
12480;SDS011;6305;48.398;11.762;2022-10-04T06:07:37;32.77;;;16.73;;
12480;SDS011;6305;48.398;11.762;2022-10-04T06:10:10;33.30;;;16.77;;
12480;SDS011;6305;48.398;11.762;2022-10-04T06:12:54;35.93;;;17.23;;
12480;SDS011;6305;48.398;11.762;2022-10-04T06:15:34;34.03;;;16.55;;
12480;SDS011;6305;48.398;11.762;2022-10-04T06:18:28;34.25;;;16.63;;
12480;SDS011;6305;48.398;11.762;2022-10-04T06:21:12;34.58;;;17.40;;
12480;SDS011;6305;48.398;11.762;2022-10-04T06:23:47;32.60;;;16.73;;
12480;SDS011;6305;48.398;11.762;2022-10-04T06:26:20;32.15;;;16.23;;
12480;SDS011;6305;48.398;11.762;2022-10-04T06:28:51;33.78;;;16.52;;
12480;SDS011;6305;48.398;11.762;2022-10-04T06:31:33;29.45;;;16.05;;
12480;SDS011;6305;48.398;11.762;2022-10-04T06:34:27;25.50;;;14.25;;
12480;SDS011;6305;48.398;11.762;2022-10-04T06:37:16;30.10;;;15.68;;
12480;SDS011;6305;48.398;11.762;2022-10-04T06:40:08;28.98;;;15.43;;
12480;SDS011;6305;48.398;11.762;2022-10-04T06:43:05;28.17;;;15.48;;
12480;SDS011;6305;48.398;11.762;2022-10-04T06:45:49;27.30;;;13.82;;
12480;SDS011;6305;48.398;11.762;2022-10-04T06:51:30;24.77;;;14.50;;
12480;SDS011;6305;48.398;11.762;2022-10-04T06:54:12;27.38;;;15.13;;
12480;SDS011;6305;48.398;11.762;2022-10-04T06:57:00;24.15;;;14.70;;
12480;SDS011;6305;48.398;11.762;2022-10-04T06:59:54;22.90;;;14.38;;
12480;SDS011;6305;48.398;11.762;2022-10-04T07:02:31;25.45;;;15.02;;
12480;SDS011;6305;48.398;11.762;2022-10-04T07:05:10;23.13;;;15.07;;
12480;SDS011;6305;48.398;11.762;2022-10-04T07:07:43;21.77;;;14.45;;
12480;SDS011;6305;48.398;11.762;2022-10-04T07:10:21;22.02;;;13.40;;
12480;SDS011;6305;48.398;11.762;2022-10-04T07:12:58;23.25;;;15.63;;
12480;SDS011;6305;48.398;11.762;2022-10-04T07:15:39;20.60;;;14.32;;
12480;SDS011;6305;48.398;11.762;2022-10-04T07:18:13;21.48;;;15.40;;
12480;SDS011;6305;48.398;11.762;2022-10-04T07:20:47;25.00;;;14.43;;
12480;SDS011;6305;48.398;11.762;2022-10-04T07:23:20;16.00;;;12.43;;
12480;SDS011;6305;48.398;11.762;2022-10-04T07:25:53;17.15;;;12.48;;
12480;SDS011;6305;48.398;11.762;2022-10-04T07:28:24;16.67;;;12.15;;
12480;SDS011;6305;48.398;11.762;2022-10-04T07:31:12;15.25;;;11.70;;
12480;SDS011;6305;48.398;11.762;2022-10-04T07:33:47;13.35;;;10.48;;
12480;SDS011;6305;48.398;11.762;2022-10-04T07:36:21;14.57;;;9.88;;
12480;SDS011;6305;48.398;11.762;2022-10-04T07:38:52;12.82;;;9.15;;
12480;SDS011;6305;48.398;11.762;2022-10-04T07:41:24;11.13;;;8.82;;
12480;SDS011;6305;48.398;11.762;2022-10-04T07:43:56;10.50;;;7.32;;
12480;SDS011;6305;48.398;11.762;2022-10-04T07:46:36;10.00;;;7.28;;
12480;SDS011;6305;48.398;11.762;2022-10-04T07:49:11;9.15;;;6.70;;
12480;SDS011;6305;48.398;11.762;2022-10-04T07:51:42;9.18;;;6.00;;
12480;SDS011;6305;48.398;11.762;2022-10-04T07:54:15;7.95;;;6.03;;
12480;SDS011;6305;48.398;11.762;2022-10-04T07:56:50;9.30;;;6.10;;
12480;SDS011;6305;48.398;11.762;2022-10-04T07:59:25;8.40;;;6.53;;
12480;SDS011;6305;48.398;11.762;2022-10-04T08:02:07;11.10;;;8.50;;
12480;SDS011;6305;48.398;11.762;2022-10-04T08:04:43;9.40;;;7.90;;
12480;SDS011;6305;48.398;11.762;2022-10-04T08:07:18;8.98;;;7.13;;
12480;SDS011;6305;48.398;11.762;2022-10-04T08:09:51;8.40;;;6.63;;
12480;SDS011;6305;48.398;11.762;2022-10-04T08:12:29;7.38;;;6.55;;
12480;SDS011;6305;48.398;11.762;2022-10-04T08:15:08;12.77;;;8.32;;
12480;SDS011;6305;48.398;11.762;2022-10-04T08:17:55;9.25;;;6.20;;
12480;SDS011;6305;48.398;11.762;2022-10-04T08:20:31;9.18;;;7.03;;
12480;SDS011;6305;48.398;11.762;2022-10-04T08:23:07;7.65;;;5.97;;
12480;SDS011;6305;48.398;11.762;2022-10-04T08:25:50;8.18;;;6.22;;
12480;SDS011;6305;48.398;11.762;2022-10-04T08:28:28;7.80;;;6.03;;
12480;SDS011;6305;48.398;11.762;2022-10-04T08:31:26;8.10;;;5.60;;
12480;SDS011;6305;48.398;11.762;2022-10-04T08:34:07;7.45;;;5.35;;
12480;SDS011;6305;48.398;11.762;2022-10-04T08:36:48;9.68;;;6.97;;
12480;SDS011;6305;48.398;11.762;2022-10-04T08:39:32;8.05;;;4.85;;
12480;SDS011;6305;48.398;11.762;2022-10-04T08:45:27;5.85;;;4.57;;
12480;SDS011;6305;48.398;11.762;2022-10-04T08:54:39;4.63;;;3.97;;
12480;SDS011;6305;48.398;11.762;2022-10-04T09:00:27;4.05;;;2.85;;
12480;SDS011;6305;48.398;11.762;2022-10-04T09:06:28;3.70;;;3.10;;
12480;SDS011;6305;48.398;11.762;2022-10-04T09:15:24;4.05;;;2.38;;
12480;SDS011;6305;48.398;11.762;2022-10-04T09:21:10;3.95;;;2.67;;
12480;SDS011;6305;48.398;11.762;2022-10-04T09:26:46;5.03;;;3.08;;
12480;SDS011;6305;48.398;11.762;2022-10-04T09:29:32;5.25;;;2.50;;
12480;SDS011;6305;48.398;11.762;2022-10-04T09:32:15;4.60;;;2.63;;
12480;SDS011;6305;48.398;11.762;2022-10-04T09:38:08;3.90;;;2.50;;
12480;SDS011;6305;48.398;11.762;2022-10-04T09:47:03;7.25;;;2.20;;
12480;SDS011;6305;48.398;11.762;2022-10-04T09:49:49;3.88;;;2.20;;
12480;SDS011;6305;48.398;11.762;2022-10-04T09:52:35;5.63;;;2.50;;
12480;SDS011;6305;48.398;11.762;2022-10-04T09:55:14;3.13;;;2.13;;
12480;SDS011;6305;48.398;11.762;2022-10-04T09:58:09;4.38;;;2.70;;
12480;SDS011;6305;48.398;11.762;2022-10-04T10:00:58;3.70;;;2.10;;
12480;SDS011;6305;48.398;11.762;2022-10-04T10:03:41;3.35;;;2.00;;
12480;SDS011;6305;48.398;11.762;2022-10-04T10:06:23;3.88;;;2.03;;
12480;SDS011;6305;48.398;11.762;2022-10-04T10:09:14;4.07;;;2.53;;
12480;SDS011;6305;48.398;11.762;2022-10-04T10:12:16;4.22;;;2.13;;
12480;SDS011;6305;48.398;11.762;2022-10-04T10:15:12;3.30;;;1.75;;
12480;SDS011;6305;48.398;11.762;2022-10-04T10:17:49;5.55;;;3.00;;
12480;SDS011;6305;48.398;11.762;2022-10-04T10:20:30;4.13;;;2.33;;
12480;SDS011;6305;48.398;11.762;2022-10-04T10:32:36;7.47;;;3.95;;
12480;SDS011;6305;48.398;11.762;2022-10-04T10:35:24;4.75;;;2.63;;
12480;SDS011;6305;48.398;11.762;2022-10-04T10:38:01;6.75;;;4.00;;
12480;SDS011;6305;48.398;11.762;2022-10-04T10:40:54;6.88;;;4.60;;
12480;SDS011;6305;48.398;11.762;2022-10-04T10:43:49;5.28;;;2.63;;
12480;SDS011;6305;48.398;11.762;2022-10-04T10:46:40;4.68;;;2.53;;
12480;SDS011;6305;48.398;11.762;2022-10-04T10:55:47;5.40;;;2.60;;
12480;SDS011;6305;48.398;11.762;2022-10-04T10:58:48;4.75;;;2.80;;
12480;SDS011;6305;48.398;11.762;2022-10-04T11:01:44;4.82;;;2.60;;
12480;SDS011;6305;48.398;11.762;2022-10-04T11:04:33;5.95;;;2.58;;
12480;SDS011;6305;48.398;11.762;2022-10-04T11:07:17;4.88;;;2.38;;
12480;SDS011;6305;48.398;11.762;2022-10-04T11:10:25;4.72;;;2.80;;
12480;SDS011;6305;48.398;11.762;2022-10-04T11:19:54;5.25;;;2.50;;
12480;SDS011;6305;48.398;11.762;2022-10-04T11:26:19;5.22;;;2.53;;
12480;SDS011;6305;48.398;11.762;2022-10-04T11:29:07;3.92;;;2.45;;
12480;SDS011;6305;48.398;11.762;2022-10-04T11:37:51;4.00;;;2.30;;
12480;SDS011;6305;48.398;11.762;2022-10-04T11:40:35;6.00;;;2.53;;
12480;SDS011;6305;48.398;11.762;2022-10-04T11:43:17;4.47;;;2.90;;
12480;SDS011;6305;48.398;11.762;2022-10-04T11:46:07;4.78;;;2.38;;
12480;SDS011;6305;48.398;11.762;2022-10-04T11:48:47;3.88;;;2.20;;
12480;SDS011;6305;48.398;11.762;2022-10-04T11:54:22;4.80;;;2.13;;
12480;SDS011;6305;48.398;11.762;2022-10-04T11:57:06;4.70;;;2.60;;
12480;SDS011;6305;48.398;11.762;2022-10-04T11:59:47;5.28;;;2.42;;
12480;SDS011;6305;48.398;11.762;2022-10-04T12:02:42;4.68;;;2.10;;
12480;SDS011;6305;48.398;11.762;2022-10-04T12:05:28;4.35;;;2.20;;
12480;SDS011;6305;48.398;11.762;2022-10-04T12:08:15;4.13;;;2.10;;
12480;SDS011;6305;48.398;11.762;2022-10-04T12:10:58;4.22;;;2.42;;
12480;SDS011;6305;48.398;11.762;2022-10-04T12:13:57;2.88;;;2.10;;
12480;SDS011;6305;48.398;11.762;2022-10-04T12:16:40;4.38;;;1.80;;
12480;SDS011;6305;48.398;11.762;2022-10-04T12:19:41;2.63;;;1.77;;
12480;SDS011;6305;48.398;11.762;2022-10-04T12:22:43;2.83;;;1.90;;
12480;SDS011;6305;48.398;11.762;2022-10-04T12:25:47;3.22;;;1.70;;
12480;SDS011;6305;48.398;11.762;2022-10-04T12:28:32;4.63;;;1.90;;
12480;SDS011;6305;48.398;11.762;2022-10-04T12:31:23;2.78;;;1.75;;
12480;SDS011;6305;48.398;11.762;2022-10-04T12:33:59;2.78;;;1.85;;
12480;SDS011;6305;48.398;11.762;2022-10-04T12:36:42;2.72;;;1.70;;
12480;SDS011;6305;48.398;11.762;2022-10-04T12:42:20;2.38;;;1.58;;
12480;SDS011;6305;48.398;11.762;2022-10-04T12:44:56;4.13;;;1.90;;
12480;SDS011;6305;48.398;11.762;2022-10-04T12:47:50;3.22;;;1.85;;
12480;SDS011;6305;48.398;11.762;2022-10-04T12:50:47;3.85;;;2.20;;
12480;SDS011;6305;48.398;11.762;2022-10-04T12:53:26;3.88;;;1.90;;
12480;SDS011;6305;48.398;11.762;2022-10-04T12:56:06;4.60;;;2.00;;
12480;SDS011;6305;48.398;11.762;2022-10-04T12:58:43;3.00;;;1.77;;
12480;SDS011;6305;48.398;11.762;2022-10-04T13:01:21;3.00;;;1.70;;
12480;SDS011;6305;48.398;11.762;2022-10-04T13:04:03;2.78;;;1.70;;
12480;SDS011;6305;48.398;11.762;2022-10-04T13:06:41;4.00;;;1.83;;
12480;SDS011;6305;48.398;11.762;2022-10-04T13:09:24;3.50;;;2.05;;
12480;SDS011;6305;48.398;11.762;2022-10-04T13:12:01;3.75;;;1.52;;
12480;SDS011;6305;48.398;11.762;2022-10-04T13:14:59;3.90;;;1.98;;
12480;SDS011;6305;48.398;11.762;2022-10-04T13:17:43;3.25;;;1.88;;
12480;SDS011;6305;48.398;11.762;2022-10-04T13:20:19;2.78;;;1.65;;
12480;SDS011;6305;48.398;11.762;2022-10-04T13:23:15;3.22;;;1.85;;
12480;SDS011;6305;48.398;11.762;2022-10-04T13:28:42;3.95;;;1.95;;
12480;SDS011;6305;48.398;11.762;2022-10-04T13:31:18;5.10;;;2.20;;
12480;SDS011;6305;48.398;11.762;2022-10-04T13:33:50;4.15;;;2.13;;
12480;SDS011;6305;48.398;11.762;2022-10-04T13:36:26;2.08;;;1.55;;
12480;SDS011;6305;48.398;11.762;2022-10-04T13:39:15;3.30;;;1.85;;
12480;SDS011;6305;48.398;11.762;2022-10-04T13:41:53;4.35;;;2.40;;
12480;SDS011;6305;48.398;11.762;2022-10-04T13:44:46;2.85;;;1.52;;
12480;SDS011;6305;48.398;11.762;2022-10-04T13:47:34;3.50;;;1.67;;
12480;SDS011;6305;48.398;11.762;2022-10-04T13:50:25;5.57;;;1.80;;
12480;SDS011;6305;48.398;11.762;2022-10-04T13:53:05;2.72;;;1.63;;
12480;SDS011;6305;48.398;11.762;2022-10-04T13:56:06;3.97;;;2.10;;
12480;SDS011;6305;48.398;11.762;2022-10-04T13:59:03;3.47;;;2.00;;
12480;SDS011;6305;48.398;11.762;2022-10-04T14:05:02;4.80;;;1.83;;
12480;SDS011;6305;48.398;11.762;2022-10-04T14:08:04;4.68;;;2.05;;
12480;SDS011;6305;48.398;11.762;2022-10-04T14:10:49;3.83;;;2.08;;
12480;SDS011;6305;48.398;11.762;2022-10-04T14:25:47;3.28;;;2.40;;
12480;SDS011;6305;48.398;11.762;2022-10-04T14:34:48;3.55;;;1.52;;
12480;SDS011;6305;48.398;11.762;2022-10-04T14:37:28;4.18;;;1.98;;
12480;SDS011;6305;48.398;11.762;2022-10-04T14:43:56;5.00;;;2.05;;
12480;SDS011;6305;48.398;11.762;2022-10-04T14:46:42;4.10;;;1.80;;
12480;SDS011;6305;48.398;11.762;2022-10-04T14:49:20;3.53;;;2.00;;
12480;SDS011;6305;48.398;11.762;2022-10-04T14:52:07;5.53;;;2.08;;
12480;SDS011;6305;48.398;11.762;2022-10-04T14:54:48;2.55;;;1.63;;
12480;SDS011;6305;48.398;11.762;2022-10-04T14:57:20;3.40;;;2.30;;
12480;SDS011;6305;48.398;11.762;2022-10-04T15:00:09;3.00;;;1.77;;
12480;SDS011;6305;48.398;11.762;2022-10-04T15:03:04;3.25;;;1.90;;
12480;SDS011;6305;48.398;11.762;2022-10-04T15:05:58;4.13;;;2.00;;
12480;SDS011;6305;48.398;11.762;2022-10-04T15:08:45;3.45;;;1.67;;
12480;SDS011;6305;48.398;11.762;2022-10-04T15:11:41;3.60;;;2.10;;
12480;SDS011;6305;48.398;11.762;2022-10-04T15:14:29;3.45;;;2.03;;
12480;SDS011;6305;48.398;11.762;2022-10-04T15:17:03;3.67;;;2.05;;
12480;SDS011;6305;48.398;11.762;2022-10-04T15:19:36;2.95;;;2.05;;
12480;SDS011;6305;48.398;11.762;2022-10-04T15:22:20;4.88;;;2.60;;
12480;SDS011;6305;48.398;11.762;2022-10-04T15:24:53;4.30;;;2.42;;
12480;SDS011;6305;48.398;11.762;2022-10-04T15:30:18;4.38;;;2.05;;
12480;SDS011;6305;48.398;11.762;2022-10-04T15:32:49;3.53;;;2.10;;
12480;SDS011;6305;48.398;11.762;2022-10-04T15:35:27;4.50;;;2.22;;
12480;SDS011;6305;48.398;11.762;2022-10-04T15:38:03;2.20;;;1.98;;
12480;SDS011;6305;48.398;11.762;2022-10-04T15:43:23;4.38;;;2.72;;
12480;SDS011;6305;48.398;11.762;2022-10-04T15:45:57;4.47;;;2.40;;
12480;SDS011;6305;48.398;11.762;2022-10-04T15:48:49;5.25;;;2.85;;
12480;SDS011;6305;48.398;11.762;2022-10-04T15:51:38;6.15;;;2.90;;
12480;SDS011;6305;48.398;11.762;2022-10-04T15:54:31;5.68;;;3.45;;
12480;SDS011;6305;48.398;11.762;2022-10-04T15:57:19;5.50;;;3.05;;
12480;SDS011;6305;48.398;11.762;2022-10-04T15:59:55;6.05;;;3.10;;
12480;SDS011;6305;48.398;11.762;2022-10-04T16:02:39;5.63;;;3.60;;
12480;SDS011;6305;48.398;11.762;2022-10-04T16:05:20;12.88;;;7.20;;
12480;SDS011;6305;48.398;11.762;2022-10-04T16:08:00;12.98;;;6.47;;
12480;SDS011;6305;48.398;11.762;2022-10-04T16:10:53;9.25;;;5.50;;
12480;SDS011;6305;48.398;11.762;2022-10-04T16:13:34;9.18;;;6.95;;
12480;SDS011;6305;48.398;11.762;2022-10-04T16:19:23;8.90;;;5.28;;
12480;SDS011;6305;48.398;11.762;2022-10-04T16:22:26;9.65;;;5.22;;
12480;SDS011;6305;48.398;11.762;2022-10-04T16:24:55;8.20;;;5.30;;
12480;SDS011;6305;48.398;11.762;2022-10-04T16:30:30;7.97;;;4.72;;
12480;SDS011;6305;48.398;11.762;2022-10-04T16:33:10;8.48;;;4.70;;
12480;SDS011;6305;48.398;11.762;2022-10-04T16:36:03;7.85;;;4.22;;
12480;SDS011;6305;48.398;11.762;2022-10-04T16:38:34;6.38;;;4.38;;
12480;SDS011;6305;48.398;11.762;2022-10-04T16:41:32;8.68;;;4.05;;
12480;SDS011;6305;48.398;11.762;2022-10-04T16:44:06;7.22;;;3.75;;
12480;SDS011;6305;48.398;11.762;2022-10-04T16:46:49;7.47;;;4.60;;
12480;SDS011;6305;48.398;11.762;2022-10-04T16:49:20;10.02;;;4.65;;
12480;SDS011;6305;48.398;11.762;2022-10-04T16:52:06;13.07;;;7.63;;
12480;SDS011;6305;48.398;11.762;2022-10-04T17:00:46;10.30;;;4.82;;
12480;SDS011;6305;48.398;11.762;2022-10-04T17:03:17;8.77;;;5.43;;
12480;SDS011;6305;48.398;11.762;2022-10-04T17:06:02;12.30;;;5.50;;
12480;SDS011;6305;48.398;11.762;2022-10-04T17:08:49;12.68;;;6.88;;
12480;SDS011;6305;48.398;11.762;2022-10-04T17:11:30;10.18;;;5.78;;
12480;SDS011;6305;48.398;11.762;2022-10-04T17:14:18;15.45;;;7.22;;
12480;SDS011;6305;48.398;11.762;2022-10-04T17:16:58;12.32;;;6.40;;
12480;SDS011;6305;48.398;11.762;2022-10-04T17:19:37;13.57;;;6.95;;
12480;SDS011;6305;48.398;11.762;2022-10-04T17:22:14;11.98;;;6.85;;
12480;SDS011;6305;48.398;11.762;2022-10-04T17:24:54;10.65;;;6.20;;
12480;SDS011;6305;48.398;11.762;2022-10-04T17:27:31;9.68;;;5.65;;
12480;SDS011;6305;48.398;11.762;2022-10-04T17:30:14;9.73;;;5.03;;
12480;SDS011;6305;48.398;11.762;2022-10-04T17:32:46;9.40;;;5.63;;
12480;SDS011;6305;48.398;11.762;2022-10-04T17:38:27;7.65;;;4.80;;
12480;SDS011;6305;48.398;11.762;2022-10-04T17:41:04;9.98;;;5.32;;
12480;SDS011;6305;48.398;11.762;2022-10-04T17:43:40;7.50;;;4.88;;
12480;SDS011;6305;48.398;11.762;2022-10-04T17:46:13;7.63;;;5.45;;
12480;SDS011;6305;48.398;11.762;2022-10-04T17:48:45;9.35;;;5.43;;
12480;SDS011;6305;48.398;11.762;2022-10-04T17:51:41;13.13;;;5.85;;
12480;SDS011;6305;48.398;11.762;2022-10-04T17:54:29;10.38;;;5.75;;
12480;SDS011;6305;48.398;11.762;2022-10-04T17:57:19;8.77;;;5.30;;
12480;SDS011;6305;48.398;11.762;2022-10-04T17:59:51;10.57;;;5.55;;
12480;SDS011;6305;48.398;11.762;2022-10-04T18:02:23;9.55;;;5.35;;
12480;SDS011;6305;48.398;11.762;2022-10-04T18:04:58;9.95;;;5.30;;